createdAt,value
2023-05-10T00:01:55.633Z,9.87
2023-05-10T00:04:23.753Z,9.87
2023-05-10T00:06:51.775Z,9.81
2023-05-10T00:09:21.281Z,9.83
2023-05-10T00:11:49.273Z,9.88
2023-05-10T00:14:17.312Z,9.89
2023-05-10T00:16:45.368Z,9.89
2023-05-10T00:19:14.431Z,9.85
2023-05-10T00:21:42.476Z,9.88
2023-05-10T00:24:10.530Z,9.90
2023-05-10T00:26:39.889Z,9.86
2023-05-10T00:29:07.852Z,9.90
2023-05-10T00:31:36.007Z,9.96
2023-05-10T00:34:03.993Z,9.88
2023-05-10T00:36:32.367Z,9.87
2023-05-10T00:39:00.542Z,9.84
2023-05-10T00:41:28.559Z,9.81
2023-05-10T00:43:57.940Z,9.80
2023-05-10T00:46:26.520Z,9.76
2023-05-10T00:48:54.896Z,9.79
2023-05-10T00:51:23.092Z,9.82
2023-05-10T00:53:52.592Z,9.73
2023-05-10T00:56:21.678Z,9.78
2023-05-10T00:58:49.682Z,9.78
2023-05-10T01:01:19.182Z,9.84
2023-05-10T01:03:47.981Z,9.76
2023-05-10T01:06:16.029Z,9.81
2023-05-10T01:08:44.368Z,9.80
2023-05-10T01:11:15.514Z,9.68
2023-05-10T01:13:59.787Z,9.67
2023-05-10T01:17:12.859Z,9.65
2023-05-10T01:19:54.369Z,9.63
2023-05-10T01:23:25.941Z,9.59
2023-05-10T01:26:15.813Z,9.58
2023-05-10T01:39:22.246Z,9.48
2023-05-10T01:41:56.947Z,9.43
2023-05-10T01:44:33.708Z,9.42
2023-05-10T01:47:08.311Z,9.38
2023-05-10T01:49:42.460Z,9.30
2023-05-10T01:52:15.002Z,9.24
2023-05-10T01:54:46.959Z,9.15
2023-05-10T01:57:17.652Z,9.12
2023-05-10T01:59:51.453Z,9.00
2023-05-10T02:02:21.251Z,8.83
2023-05-10T02:04:51.771Z,8.84
2023-05-10T02:07:22.366Z,8.77
2023-05-10T02:09:50.514Z,8.63
2023-05-10T02:12:20.237Z,8.66
2023-05-10T02:14:49.930Z,8.66
2023-05-10T02:17:18.908Z,8.64
2023-05-10T02:19:49.227Z,8.61
2023-05-10T02:22:18.835Z,8.57
2023-05-10T02:24:49.847Z,8.53
2023-05-10T02:27:19.590Z,8.43
2023-05-10T02:29:48.893Z,8.35
2023-05-10T02:32:18.912Z,8.28
2023-05-10T02:34:52.993Z,8.25
2023-05-10T02:37:22.399Z,8.25
2023-05-10T02:39:54.751Z,8.11
2023-05-10T02:42:26.396Z,8.05
2023-05-10T02:44:58.318Z,7.94
2023-05-10T02:47:26.805Z,7.75
2023-05-10T02:49:55.006Z,7.77
2023-05-10T02:52:26.908Z,7.77
2023-05-10T02:55:00.615Z,7.65
2023-05-10T02:57:32.411Z,7.56
2023-05-10T03:00:01.262Z,7.44
2023-05-10T03:02:31.881Z,7.44
2023-05-10T03:05:00.173Z,7.45
2023-05-10T03:07:28.383Z,7.37
2023-05-10T03:09:57.857Z,7.41
2023-05-10T03:12:34.182Z,7.44
2023-05-10T03:15:09.443Z,7.36
2023-05-10T03:17:50.310Z,7.38
2023-05-10T03:20:24.635Z,7.44
2023-05-10T03:22:58.341Z,7.46
2023-05-10T03:25:28.506Z,7.46
2023-05-10T03:27:58.371Z,7.51
2023-05-10T03:30:27.058Z,7.47
2023-05-10T03:32:55.294Z,7.46
2023-05-10T03:35:23.367Z,7.51
2023-05-10T03:37:51.347Z,7.64
2023-05-10T03:40:19.507Z,7.66
2023-05-10T03:42:48.980Z,7.78
2023-05-10T03:45:17.200Z,7.90
2023-05-10T03:47:45.206Z,7.97
2023-05-10T03:50:13.230Z,8.05
2023-05-10T03:52:41.199Z,8.14
2023-05-10T03:55:09.709Z,8.14
2023-05-10T03:57:37.662Z,8.20
2023-05-10T04:00:08.361Z,8.30
2023-05-10T04:02:36.480Z,8.47
2023-05-10T04:05:04.736Z,8.62
2023-05-10T04:07:32.684Z,8.75
2023-05-10T04:10:00.657Z,8.85
2023-05-10T04:12:28.629Z,8.95
2023-05-10T04:14:56.616Z,9.09
2023-05-10T04:17:26.014Z,9.20
2023-05-10T04:19:55.825Z,9.34
2023-05-10T04:22:23.869Z,9.46
2023-05-10T04:24:51.898Z,9.54
2023-05-10T04:27:19.894Z,9.69
2023-05-10T04:29:47.899Z,9.86
2023-05-10T04:32:17.374Z,9.98
2023-05-10T04:34:46.840Z,10.11
2023-05-10T04:37:14.840Z,10.26
2023-05-10T04:39:42.925Z,10.35
2023-05-10T04:42:11.158Z,10.45
2023-05-10T04:44:41.875Z,10.51
2023-05-10T04:47:14.252Z,10.61
2023-05-10T04:49:42.287Z,10.75
2023-05-10T04:52:12.472Z,10.77
2023-05-10T04:54:40.489Z,10.85
2023-05-10T04:57:08.503Z,10.88
2023-05-10T04:59:38.279Z,10.93
2023-05-10T05:02:07.298Z,11.03
2023-05-10T05:04:35.341Z,11.09
2023-05-10T05:07:03.382Z,11.12
2023-05-10T05:09:33.278Z,11.17
2023-05-10T05:12:01.434Z,11.26
2023-05-10T05:14:29.424Z,11.29
2023-05-10T05:16:57.631Z,11.27
2023-05-10T05:19:25.693Z,11.27
2023-05-10T05:21:53.688Z,11.29
2023-05-10T05:24:21.710Z,11.16
2023-05-10T05:26:51.166Z,11.18
2023-05-10T05:29:19.196Z,11.23
2023-05-10T05:31:47.249Z,11.31
2023-05-10T05:34:15.239Z,11.41
2023-05-10T05:36:43.286Z,11.53
2023-05-10T05:39:11.281Z,11.50
2023-05-10T05:41:39.260Z,11.42
2023-05-10T05:44:08.660Z,11.33
2023-05-10T05:46:36.657Z,11.35
2023-05-10T05:49:04.733Z,11.42
2023-05-10T05:51:33.307Z,11.47
2023-05-10T05:54:01.151Z,11.51
2023-05-10T05:56:29.168Z,11.47
2023-05-10T05:58:57.249Z,11.58
2023-05-10T06:01:26.662Z,11.68
2023-05-10T06:03:54.722Z,11.72
2023-05-10T06:06:22.716Z,11.77
2023-05-10T06:08:50.811Z,11.82
2023-05-10T06:11:18.862Z,11.84
2023-05-10T06:13:47.253Z,11.77
2023-05-10T06:16:15.518Z,11.88
2023-05-10T06:18:44.980Z,11.98
2023-05-10T06:21:12.973Z,12.00
2023-05-10T06:23:40.982Z,12.09
2023-05-10T06:26:08.982Z,12.05
2023-05-10T06:28:39.345Z,12.12
2023-05-10T06:31:07.783Z,12.19
2023-05-10T06:33:36.324Z,12.25
2023-05-10T06:36:06.054Z,12.29
2023-05-10T06:38:34.427Z,12.27
2023-05-10T06:41:02.638Z,12.37
2023-05-10T06:43:30.781Z,12.42
2023-05-10T06:45:58.888Z,12.41
2023-05-10T06:48:26.918Z,12.52
2023-05-10T06:50:54.901Z,12.71
2023-05-10T06:53:24.256Z,12.76
2023-05-10T06:55:52.565Z,12.78
2023-05-10T06:58:20.561Z,12.89
2023-05-10T07:00:48.590Z,13.00
2023-05-10T07:03:16.967Z,13.09
2023-05-10T07:05:45.073Z,13.16
2023-05-10T07:08:14.434Z,13.26
2023-05-10T07:10:43.986Z,13.25
2023-05-10T07:13:12.143Z,13.33
2023-05-10T07:15:40.215Z,13.34
2023-05-10T07:18:08.370Z,13.45
2023-05-10T07:20:36.551Z,13.47
2023-05-10T07:23:04.553Z,13.44
2023-05-10T07:25:32.540Z,13.37
2023-05-10T07:28:01.961Z,13.39
2023-05-10T07:30:30.015Z,13.50
2023-05-10T07:32:58.103Z,13.52
2023-05-10T07:35:26.184Z,13.58
2023-05-10T07:37:54.152Z,13.60
2023-05-10T07:40:22.300Z,13.69
2023-05-10T07:42:50.323Z,13.67
2023-05-10T07:45:20.311Z,13.67
2023-05-10T07:47:48.349Z,13.73
2023-05-10T07:50:16.521Z,13.75
2023-05-10T07:52:44.546Z,13.72
2023-05-10T07:55:12.767Z,13.74
2023-05-10T07:57:41.104Z,13.93
2023-05-10T08:00:10.070Z,14.03
2023-05-10T08:02:39.588Z,14.15
2023-05-10T08:05:08.518Z,14.35
2023-05-10T08:07:36.646Z,14.42
2023-05-10T08:10:04.852Z,14.53
2023-05-10T08:12:32.944Z,14.70
2023-05-10T08:15:01.111Z,14.82
2023-05-10T08:17:29.141Z,14.91
2023-05-10T08:19:58.596Z,15.03
2023-05-10T08:22:27.137Z,15.12
2023-05-10T08:24:55.103Z,15.22
2023-05-10T08:27:23.084Z,15.33
2023-05-10T08:29:51.134Z,15.34
2023-05-10T08:32:19.602Z,15.38
2023-05-10T08:34:47.622Z,15.41
2023-05-10T08:37:17.566Z,15.48
2023-05-10T08:39:46.855Z,15.53
2023-05-10T08:42:18.962Z,15.57
2023-05-10T08:44:50.643Z,15.57
2023-05-10T08:47:20.442Z,15.78
2023-05-10T08:49:52.087Z,15.72
2023-05-10T08:52:22.454Z,15.75
2023-05-10T08:54:50.953Z,15.77
2023-05-10T08:57:19.435Z,15.80
2023-05-10T08:59:47.192Z,15.88
2023-05-10T09:02:18.591Z,15.94
2023-05-10T09:04:46.951Z,15.98
2023-05-10T09:07:15.160Z,16.06
2023-05-10T09:09:44.970Z,16.16
2023-05-10T09:12:13.294Z,16.32
2023-05-10T09:14:42.149Z,16.42
2023-05-10T09:17:10.384Z,16.56
2023-05-10T09:19:38.445Z,16.67
2023-05-10T09:22:06.454Z,16.66
2023-05-10T09:24:34.453Z,16.72
2023-05-10T09:27:04.025Z,16.81
2023-05-10T09:29:41.703Z,16.83
2023-05-10T09:32:09.863Z,16.88
2023-05-10T09:34:44.199Z,16.91
2023-05-10T09:37:12.697Z,16.98
2023-05-10T09:39:42.451Z,17.06
2023-05-10T09:42:12.625Z,17.11
2023-05-10T09:44:41.991Z,17.24
2023-05-10T09:47:10.342Z,17.32
2023-05-10T09:49:38.116Z,17.35
2023-05-10T09:52:07.730Z,17.36
2023-05-10T09:54:37.171Z,17.40
2023-05-10T09:57:06.365Z,17.40
2023-05-10T09:59:36.573Z,17.40
2023-05-10T10:02:05.305Z,17.52
2023-05-10T10:04:33.883Z,17.58
2023-05-10T10:07:03.964Z,17.58
2023-05-10T10:09:32.800Z,17.71
2023-05-10T10:12:01.723Z,17.81
2023-05-10T10:14:30.596Z,17.88
2023-05-10T10:17:07.407Z,17.95
2023-05-10T10:19:38.062Z,18.05
2023-05-10T10:22:06.709Z,18.12
2023-05-10T10:24:35.017Z,18.06
2023-05-10T10:27:11.371Z,18.07
2023-05-10T10:29:46.679Z,18.11
2023-05-10T10:32:27.755Z,18.13
2023-05-10T10:34:57.387Z,18.12
2023-05-10T10:37:26.242Z,18.15
2023-05-10T10:39:54.235Z,18.19
2023-05-10T10:42:47.022Z,18.24
2023-05-10T10:45:15.247Z,18.30
2023-05-10T10:47:45.290Z,18.38
2023-05-10T10:50:14.059Z,18.51
2023-05-10T10:52:42.993Z,18.47
2023-05-10T10:55:12.890Z,18.48
2023-05-10T10:57:52.764Z,18.58
2023-05-10T11:00:26.398Z,18.58
2023-05-10T11:02:58.586Z,18.66
2023-05-10T11:08:21.175Z,18.82
2023-05-10T11:11:07.865Z,18.95
2023-05-10T11:13:36.326Z,19.11
2023-05-10T11:16:19.265Z,19.18
2023-05-10T11:19:01.040Z,19.18
2023-05-10T11:21:29.289Z,19.11
2023-05-10T11:23:58.684Z,19.11
2023-05-10T11:26:27.469Z,19.11
2023-05-10T11:29:00.229Z,19.05
2023-05-10T11:31:28.864Z,19.05
2023-05-10T11:34:00.156Z,19.07
2023-05-10T11:36:29.881Z,19.15
2023-05-10T11:38:58.547Z,19.17
2023-05-10T11:41:27.392Z,19.19
2023-05-10T11:43:56.488Z,19.26
2023-05-10T11:46:27.037Z,19.23
2023-05-10T11:48:56.856Z,19.35
2023-05-10T11:51:27.231Z,19.40
2023-05-10T11:53:56.572Z,19.49
2023-05-10T11:56:27.382Z,19.61
2023-05-10T11:58:57.654Z,19.61
2023-05-10T12:01:26.527Z,19.60
2023-05-10T12:03:56.800Z,19.74
2023-05-10T12:06:29.131Z,19.80
2023-05-10T12:08:57.160Z,19.69
2023-05-10T12:11:28.330Z,19.71
2023-05-10T12:13:57.604Z,19.71
2023-05-10T12:16:27.656Z,19.83
2023-05-10T12:18:58.403Z,19.84
2023-05-10T12:21:29.800Z,19.92
2023-05-10T12:24:03.354Z,19.86
2023-05-10T12:26:31.823Z,19.88
2023-05-10T12:29:14.744Z,19.86
2023-05-10T12:31:52.654Z,19.93
2023-05-10T12:34:27.967Z,19.79
2023-05-10T12:36:57.713Z,19.91
2023-05-10T12:39:26.035Z,19.94
2023-05-10T12:41:54.031Z,20.01
2023-05-10T12:44:22.101Z,19.98
2023-05-10T12:46:50.256Z,20.03
2023-05-10T12:49:20.033Z,20.12
2023-05-10T12:51:48.048Z,20.19
2023-05-10T12:54:17.538Z,20.33
2023-05-10T12:56:45.560Z,20.43
2023-05-10T12:59:13.568Z,20.53
2023-05-10T13:01:41.660Z,20.64
2023-05-10T13:04:09.725Z,20.71
2023-05-10T13:06:37.792Z,20.77
2023-05-10T13:09:05.851Z,20.83
2023-05-10T13:11:35.370Z,20.87
2023-05-10T13:14:04.284Z,20.90
2023-05-10T13:16:32.464Z,20.89
2023-05-10T13:19:00.365Z,20.86
2023-05-10T13:21:28.997Z,20.71
2023-05-10T13:23:57.018Z,20.75
2023-05-10T13:26:24.991Z,20.81
2023-05-10T13:28:56.704Z,20.88
2023-05-10T13:31:24.851Z,20.85
2023-05-10T13:33:53.076Z,20.96
2023-05-10T13:36:21.141Z,21.03
2023-05-10T13:38:49.172Z,21.14
2023-05-10T13:41:17.293Z,21.31
2023-05-10T13:43:45.339Z,21.38
2023-05-10T13:46:14.938Z,21.22
2023-05-10T13:48:42.935Z,21.09
2023-05-10T13:51:10.957Z,21.22
2023-05-10T13:53:38.943Z,21.32
2023-05-10T13:56:08.525Z,21.38
2023-05-10T13:58:37.575Z,21.53
2023-05-10T14:01:05.890Z,21.74
2023-05-10T14:03:35.369Z,22.20
2023-05-10T14:06:03.707Z,22.91
2023-05-10T14:08:31.740Z,24.32
2023-05-10T14:10:59.788Z,25.49
2023-05-10T14:13:27.543Z,26.85
2023-05-10T14:15:56.030Z,27.99
2023-05-10T14:18:24.186Z,28.76
2023-05-10T14:20:53.594Z,29.80
2023-05-10T14:23:25.116Z,30.97
2023-05-10T14:25:53.290Z,31.66
2023-05-10T14:28:21.950Z,32.47
2023-05-10T14:30:50.306Z,32.12
2023-05-10T14:33:19.333Z,31.62
2023-05-10T14:35:47.811Z,32.46
2023-05-10T14:38:17.459Z,32.82
2023-05-10T14:40:45.465Z,33.65
2023-05-10T14:43:13.506Z,34.33
2023-05-10T14:45:41.543Z,34.84
2023-05-10T14:48:13.204Z,34.91
2023-05-10T14:50:41.195Z,35.22
2023-05-10T14:53:09.373Z,35.56
2023-05-10T14:55:39.387Z,35.11
2023-05-10T14:58:07.514Z,35.27
2023-05-10T15:00:35.584Z,35.20
2023-05-10T15:03:04.650Z,35.54
2023-05-10T15:05:33.118Z,35.97
2023-05-10T15:08:01.443Z,35.90
2023-05-10T15:10:29.423Z,36.11
2023-05-10T15:12:58.879Z,35.72
2023-05-10T15:15:26.916Z,36.03
2023-05-10T15:17:54.927Z,35.78
2023-05-10T15:20:22.957Z,35.64
2023-05-10T15:22:50.960Z,35.28
2023-05-10T15:25:19.391Z,34.84
2023-05-10T15:27:47.584Z,34.91
2023-05-10T15:30:17.096Z,34.66
2023-05-10T15:32:45.140Z,34.56
2023-05-10T15:35:13.487Z,34.36
2023-05-10T15:37:41.575Z,34.55
2023-05-10T15:40:10.339Z,34.58
2023-05-10T15:42:38.324Z,34.65
2023-05-10T15:45:07.255Z,34.59
2023-05-10T15:47:36.636Z,34.42
2023-05-10T15:50:04.865Z,34.54
2023-05-10T15:52:32.847Z,34.28
2023-05-10T15:55:00.814Z,34.09
2023-05-10T15:57:28.838Z,34.05
2023-05-10T15:59:57.074Z,34.27
2023-05-10T16:02:25.184Z,34.65
2023-05-10T16:04:54.650Z,34.57
2023-05-10T16:07:22.638Z,33.76
2023-05-10T16:09:50.856Z,32.82
2023-05-10T16:12:18.907Z,32.01
2023-05-10T16:14:47.054Z,31.42
2023-05-10T16:17:15.859Z,30.39
2023-05-10T16:19:43.935Z,28.83
2023-05-10T16:22:13.416Z,27.52
2023-05-10T16:24:42.469Z,26.39
2023-05-10T16:27:10.746Z,25.34
2023-05-10T16:29:38.766Z,24.29
2023-05-10T16:32:07.128Z,23.68
2023-05-10T16:34:35.192Z,23.26
2023-05-10T16:37:03.034Z,23.27
2023-05-10T16:39:32.433Z,22.92
2023-05-10T16:42:01.190Z,23.06
2023-05-10T16:44:29.220Z,23.52
2023-05-10T16:46:57.233Z,22.86
2023-05-10T16:49:26.548Z,22.40
2023-05-10T16:51:54.582Z,21.91
2023-05-10T16:54:22.899Z,21.57
2023-05-10T16:56:52.213Z,21.06
2023-05-10T16:59:20.192Z,20.86
2023-05-10T17:01:48.328Z,20.75
2023-05-10T17:04:16.572Z,20.63
2023-05-10T17:06:44.604Z,20.45
2023-05-10T17:09:12.634Z,20.31
2023-05-10T17:11:40.619Z,20.27
2023-05-10T17:14:10.261Z,20.14
2023-05-10T17:16:38.341Z,20.04
2023-05-10T17:19:06.385Z,19.90
2023-05-10T17:21:34.360Z,19.85
2023-05-10T17:24:02.326Z,19.78
2023-05-10T17:26:30.356Z,19.65
2023-05-10T17:28:58.429Z,19.52
2023-05-10T17:31:28.739Z,19.49
2023-05-10T17:33:56.732Z,19.39
2023-05-10T17:36:24.793Z,19.28
2023-05-10T17:38:52.831Z,19.20
2023-05-10T17:41:21.850Z,19.19
2023-05-10T17:43:49.906Z,19.12
2023-05-10T17:46:20.397Z,19.05
2023-05-10T17:48:50.725Z,19.17
2023-05-10T17:51:18.740Z,19.19
2023-05-10T17:53:46.774Z,19.07
2023-05-10T17:56:14.732Z,19.01
2023-05-10T17:58:48.636Z,18.86
2023-05-10T18:01:16.740Z,18.83
2023-05-10T18:03:44.752Z,18.84
2023-05-10T18:06:15.131Z,19.01
2023-05-10T18:08:43.150Z,18.95
2023-05-10T18:11:11.180Z,18.89
2023-05-10T18:13:39.522Z,19.31
2023-05-10T18:16:08.910Z,19.93
2023-05-10T18:18:36.951Z,20.38
2023-05-10T18:21:05.279Z,20.37
2023-05-10T18:23:34.426Z,19.97
2023-05-10T18:26:03.585Z,19.65
2023-05-10T18:28:31.574Z,19.29
2023-05-10T18:30:59.646Z,19.11
2023-05-10T18:33:27.785Z,18.79
2023-05-10T18:35:55.868Z,18.45
2023-05-10T18:38:23.952Z,18.12
2023-05-10T18:40:53.337Z,17.95
2023-05-10T18:43:21.443Z,17.75
2023-05-10T18:45:51.086Z,17.49
2023-05-10T18:48:19.443Z,17.34
2023-05-10T18:50:47.510Z,17.13
2023-05-10T18:53:15.478Z,17.03
2023-05-10T18:55:44.239Z,16.88
2023-05-10T18:58:14.212Z,16.80
2023-05-10T19:00:42.263Z,16.65
2023-05-10T19:03:10.531Z,16.53
2023-05-10T19:05:38.536Z,16.39
2023-05-10T19:08:08.499Z,16.25
2023-05-10T19:10:36.509Z,16.15
2023-05-10T19:13:04.506Z,16.10
2023-05-10T19:15:34.028Z,15.93
2023-05-10T19:18:04.228Z,15.83
2023-05-10T19:20:32.457Z,15.72
2023-05-10T19:23:09.595Z,15.65
2023-05-10T19:25:39.486Z,15.58
2023-05-10T19:28:09.667Z,15.46
2023-05-10T19:30:39.347Z,15.39
2023-05-10T19:33:07.442Z,15.29
2023-05-10T19:35:35.502Z,15.20
2023-05-10T19:38:03.487Z,15.11
2023-05-10T19:40:31.756Z,15.00
2023-05-10T19:43:00.556Z,14.99
2023-05-10T19:45:28.568Z,14.84
2023-05-10T19:47:58.012Z,14.76
2023-05-10T19:50:26.361Z,14.74
2023-05-10T19:52:54.315Z,14.57
2023-05-10T19:55:30.072Z,14.47
2023-05-10T19:58:00.548Z,14.29
2023-05-10T20:00:28.904Z,14.24
2023-05-10T20:02:58.509Z,14.20
2023-05-10T20:05:26.562Z,14.11
2023-05-10T20:07:54.758Z,13.95
2023-05-10T20:10:24.650Z,13.92
2023-05-10T20:12:54.403Z,13.84
2023-05-10T20:15:24.174Z,13.78
2023-05-10T20:17:53.833Z,13.66
2023-05-10T20:20:25.125Z,13.51
2023-05-10T20:22:53.072Z,13.45
2023-05-10T20:25:21.068Z,13.36
2023-05-10T20:27:50.953Z,13.30
2023-05-10T20:30:19.239Z,13.23
2023-05-10T20:32:47.454Z,13.14
2023-05-10T20:35:15.485Z,13.05
2023-05-10T20:37:44.876Z,13.02
2023-05-10T20:40:13.679Z,12.97
2023-05-10T20:42:41.803Z,12.90
2023-05-10T20:45:11.067Z,12.80
2023-05-10T20:47:39.112Z,12.79
2023-05-10T20:50:08.412Z,12.69
2023-05-10T20:52:36.448Z,12.62
2023-05-10T20:55:06.773Z,12.60
2023-05-10T20:57:34.776Z,12.57
2023-05-10T21:00:02.951Z,12.48
2023-05-10T21:02:30.957Z,12.44
2023-05-10T21:04:59.064Z,12.39
2023-05-10T21:07:27.127Z,12.41
2023-05-10T21:09:55.091Z,12.27
2023-05-10T21:12:24.542Z,12.23
2023-05-10T21:14:52.548Z,12.24
2023-05-10T21:17:20.526Z,12.16
2023-05-10T21:19:48.521Z,12.07
2023-05-10T21:22:16.591Z,12.06
2023-05-10T21:24:45.024Z,11.99
2023-05-10T21:27:13.114Z,11.98
2023-05-10T21:29:42.492Z,11.89
2023-05-10T21:32:10.694Z,11.76
2023-05-10T21:34:38.738Z,11.77
2023-05-10T21:37:06.874Z,11.73
2023-05-10T21:39:35.018Z,11.69
2023-05-10T21:42:03.764Z,11.63
2023-05-10T21:44:33.134Z,11.59
2023-05-10T21:47:02.569Z,11.55
2023-05-10T21:49:30.561Z,11.52
2023-05-10T21:51:58.529Z,11.44
2023-05-10T21:54:26.586Z,11.42
2023-05-10T21:56:54.605Z,11.36
2023-05-10T21:59:22.589Z,11.31
2023-05-10T22:01:50.648Z,11.19
2023-05-10T22:04:20.105Z,11.20
2023-05-10T22:06:49.151Z,11.14
2023-05-10T22:09:17.123Z,11.11
2023-05-10T22:11:45.118Z,10.95
2023-05-10T22:14:13.140Z,10.95
2023-05-10T22:16:41.235Z,10.90
2023-05-10T22:19:09.358Z,10.86
2023-05-10T22:21:38.792Z,10.82
2023-05-10T22:24:07.096Z,10.75
2023-05-10T22:26:35.104Z,10.66
2023-05-10T22:29:04.307Z,10.58
2023-05-10T22:31:32.540Z,10.56
2023-05-10T22:34:00.632Z,10.41
2023-05-10T22:36:29.148Z,10.34
2023-05-10T22:38:58.889Z,10.34
2023-05-10T22:41:26.904Z,10.24
2023-05-10T22:43:54.888Z,10.20
2023-05-10T22:46:22.936Z,10.10
2023-05-10T22:48:50.955Z,9.99
2023-05-10T22:51:18.925Z,9.94
2023-05-10T22:53:46.900Z,9.84
2023-05-10T22:56:16.286Z,9.72
2023-05-10T22:58:44.444Z,9.67
2023-05-10T23:01:12.484Z,9.59
2023-05-10T23:03:40.594Z,9.60
2023-05-10T23:06:08.711Z,9.47
2023-05-10T23:08:36.679Z,9.35
2023-05-10T23:11:04.718Z,9.29
2023-05-10T23:13:34.164Z,9.22
2023-05-10T23:16:07.226Z,9.12
2023-05-10T23:18:35.389Z,9.07
2023-05-10T23:21:03.753Z,8.98
2023-05-10T23:23:32.814Z,8.94
2023-05-10T23:26:00.854Z,8.96
2023-05-10T23:28:28.938Z,8.89
2023-05-10T23:30:59.568Z,8.83
2023-05-10T23:33:27.859Z,8.80
2023-05-10T23:35:55.929Z,8.68
2023-05-10T23:38:23.928Z,8.61
2023-05-10T23:40:52.361Z,8.49
2023-05-10T23:43:21.782Z,8.38
2023-05-10T23:45:56.285Z,8.41
2023-05-10T23:48:26.127Z,8.40
2023-05-10T23:50:54.341Z,8.37
2023-05-10T23:53:22.383Z,8.29
2023-05-10T23:55:50.368Z,8.24
2023-05-10T23:58:18.336Z,8.11
